Temp     Hi    Low   Out    Dew  Wind  Wind   Wind    Hi    Hi   Wind   Heat    THW                Rain    Heat    Cool    In     In    In     In     In   In Air   Temp  Wind  Wind    ISS   Arc.
  Date    Time     Out   Temp   Temp   Hum    Pt. Speed   Dir    Run Speed   Dir  Chill  Index  Index   Bar    Rain  Rate    D-D     D-D    Temp   Hum    Dew   Heat    EMC Density    2nd  Samp   Tx   Recept  Int.
----------------------------------------------------------------------------------------------------------------------------------------------------------------------------------------------------------------------
20/09/18 12:10a    4.4    4.4    4.4    63   -2.0   0.0   ---   0.00   0.0   ---    4.4    4.1    4.1  1013.2  0.00   0.0   0.096   0.000   17.0    29   -1.2   14.9   6.15 1.2104    41.7   217    2     97.7   10 
20/09/18 12:20a    4.4    4.6    4.4    63   -2.0   0.0   ---   0.00   0.0   ---    4.4    4.1    4.1  1013.2  0.00   0.0   0.096   0.000   16.8    29   -1.3   14.7   6.15 1.2112    41.7   214    2     96.4   10 
20/09/18 12:30a    4.4    4.4    4.4    63   -2.0   0.0   ---   0.00   0.0   ---    4.4    4.1    4.1  1013.1  0.00   0.0   0.096   0.000   16.8    29   -1.4   14.7   6.15 1.2113    41.7   214    2     96.4   10 
20/09/18 12:40a    4.6    4.6    4.4    63   -1.9   0.0   ---   0.00   0.0   ---    4.6    4.2    4.2  1013.1  0.00   0.0   0.096   0.000   16.6    29   -1.5   14.5   6.15 1.2121    41.7   217    2     97.7   10 
20/09/18 12:50a    4.4    4.6    4.4    63   -2.0   0.0   ---   0.00   0.0   ---    4.4    4.0    4.0  1013.3  0.00   0.0   0.097   0.000   16.5    29   -1.6   14.4   6.15 1.2128    41.7   214    2     96.4   10 
20/09/18  1:00a    4.2    4.4    4.2    64   -2.0   0.0   ---   0.00   0.0   ---    4.2    3.8    3.8  1013.3  0.00   0.0   0.098   0.000   16.4    29   -1.7   14.3   6.15 1.2134    41.7   218    2     98.2   10 
20/09/18  1:10a    4.1    4.2    4.1    64   -2.1   0.0   ---   0.00   0.0   ---    4.1    3.7    3.7  1013.3  0.00   0.0   0.099   0.000   16.3    29   -1.8   14.3   6.15 1.2136    41.7   218    2     98.2   10 
20/09/18  1:20a    3.5    4.1    3.5    65   -2.5   0.0   ---   0.00   0.0   ---    3.5    3.1    3.1  1013.6  0.00   0.0   0.103   0.000   16.3    29   -1.8   14.3   6.15 1.2140    41.7   215    2     96.8   10 
20/09/18  1:30a    3.2    3.5    3.2    67   -2.4   0.0   ---   0.00   0.0   ---    3.2    2.8    2.8  1013.7  0.00   0.0   0.105   0.000   16.1    29   -2.0   14.0   6.15 1.2153    41.7   214    2     96.4   10 
20/09/18  1:40a    3.1    3.2    3.1    68   -2.2   0.0   ---   0.00   0.0   ---    3.1    2.8    2.8  1013.7  0.00   0.0   0.106   0.000   16.0    30   -1.6   14.0   6.33 1.2154    41.7   217    2     97.7   10 
20/09/18  1:50a    3.3    3.3    3.1    68   -2.1   0.0   ---   0.00   0.0   ---    3.3    2.9    2.9  1013.6  0.00   0.0   0.105   0.000   15.8    30   -1.8   13.8   6.34 1.2163    41.7   214    2     96.4   10 
20/09/18  2:00a    3.3    3.3    3.3    68   -2.0   0.0   ---   0.00   0.0   ---    3.3    3.0    3.0  1013.5  0.00   0.0   0.104   0.000   15.7    30   -1.8   13.8   6.34 1.2165    41.7   217    2     97.7   10 
20/09/18  2:10a    3.5    3.5    3.3    67   -2.1   0.0   ---   0.00   0.0   ---    3.5    3.1    3.1  1013.5  0.00   0.0   0.103   0.000   15.7    30   -1.8   13.8   6.34 1.2165    41.7   214    2     96.4   10 
20/09/18  2:20a    3.1    3.5    3.1    68   -2.2   0.0   ---   0.00   0.0   ---    3.1    2.8    2.8  1013.6  0.00   0.0   0.106   0.000   15.6    30   -2.0   13.6   6.35 1.2173    41.7   217    2     97.7   10 
20/09/18  2:30a    3.3    3.3    3.1    68   -2.1   0.0   ---   0.00   0.0   ---    3.3    2.9    2.9  1013.5  0.00   0.0   0.105   0.000   15.4    30   -2.1   13.5   6.35 1.2178    41.7   217    2     97.7   10 
20/09/18  2:40a    3.3    3.4    3.3    66   -2.5   0.0   ---   0.00   0.0   ---    3.3    2.9    2.9  1013.5  0.00   0.0   0.105   0.000   15.4    30   -2.1   13.4   6.35 1.2180    41.7   217    2     97.7   10 
20/09/18  2:50a    1.1    3.2    1.1    68   -4.2   0.0   ---   0.00   0.0   ---    1.1    0.8    0.8  1013.7  0.00   0.0   0.120   0.000   15.3    30   -2.2   13.3   6.35 1.2187    41.7   215    2     96.8   10 
20/09/18  3:00a    0.8    1.1    0.7    74   -3.3   0.0   ---   0.00   0.0   ---    0.8    0.6    0.6  1014.0  0.00   0.0   0.122   0.000   15.2    30   -2.3   13.3   6.35 1.2193    41.7   216    2     97.3   10 
20/09/18  3:10a    1.2    1.2    0.8    76   -2.5   0.0   ---   0.00   0.0   ---    1.2    0.9    0.9  1014.0  0.00   0.0   0.119   0.000   15.1    30   -2.4   13.2   6.35 1.2200    41.7   214    2     96.4   10 
20/09/18  3:20a    0.7    1.3    0.7    74   -3.4   0.0   ---   0.00   0.0   ---    0.7    0.5    0.5  1014.3  0.00   0.0   0.122   0.000   14.9    30   -2.5   13.1   6.35 1.2210    41.7   198    2     89.2   10 
20/09/18  3:30a    0.7    0.7    0.6    77   -2.9   0.0   ---   0.00   0.0   ---    0.7    0.5    0.5  1014.6  0.00   0.0   0.122   0.000   14.9    30   -2.6   13.0   6.35 1.2216    41.7   213    2     95.9   10 
20/09/18  3:40a    0.9    0.9    0.8    76   -2.9   0.0   ---   0.00   0.0   ---    0.9    0.7    0.7  1014.6  0.00   0.0   0.121   0.000   14.8    30   -2.7   12.9   6.35 1.2221    41.7   219    2     98.6   10 
20/09/18  3:50a    0.8    0.9    0.8    77   -2.7   0.0   ---   0.00   0.0   ---    0.8    0.6    0.6  1014.7  0.00   0.0   0.122   0.000   14.7    30   -2.7   12.9   6.35 1.2225    41.7   219    2     98.6   10 
20/09/18  4:00a    1.0    1.0    0.8    78   -2.4   0.0   ---   0.00   0.0   ---    1.0    0.8    0.8  1014.8  0.00   0.0   0.120   0.000   14.6    30   -2.8   12.8   6.35 1.2231    41.7   217    2     97.7   10 
20/09/18  4:10a    1.4    1.4    1.0    77   -2.2   0.0   ---   0.00   0.0   ---    1.4    1.2    1.2  1014.8  0.00   0.0   0.118   0.000   14.6    30   -2.8   12.7   6.35 1.2234    41.7   216    2     97.3   10 
20/09/18  4:20a    0.6    1.4    0.6    75   -3.4   0.0   ---   0.00   0.0   ---    0.6    0.3    0.3  1015.2  0.00   0.0   0.123   0.000   14.4    30   -2.9   12.6   6.35 1.2244    41.7   214    2     96.4   10 
20/09/18  4:30a    0.3    0.6    0.2    78   -3.1   0.0   ---   0.00   0.0   ---    0.3    0.2    0.2  1015.2  0.00   0.0   0.125   0.000   14.3    30   -3.1   12.4   6.35 1.2252    41.7   216    2     97.3   10 
20/09/18  4:40a    0.8    0.8    0.3    79   -2.4   0.0   ---   0.00   0.0   ---    0.8    0.6    0.6  1015.2  0.00   0.0   0.122   0.000   14.2    30   -3.2   12.4   6.35 1.2257    41.7   217    2     97.7   10 
20/09/18  4:50a    0.7    0.9    0.7    78   -2.7   0.0   ---   0.00   0.0   ---    0.7    0.5    0.5  1015.4  0.00   0.0   0.122   0.000   14.2    30   -3.2   12.4   6.35 1.2259    41.7   213    2     95.9   10 
20/09/18  5:00a    0.9    0.9    0.7    78   -2.5   0.0   ---   0.00   0.0   ---    0.9    0.7    0.7  1015.5  0.00   0.0   0.121   0.000   14.1    30   -3.2   12.3   6.35 1.2263    41.7   216    2     97.3   10 
20/09/18  5:10a    0.5    0.9    0.5    78   -2.9   0.0   ---   0.00   0.0   ---    0.5    0.3    0.3  1015.5  0.00   0.0   0.124   0.000   14.0    30   -3.3   12.2   6.35 1.2268    41.7   218    2     98.2   10 
20/09/18  5:20a    0.4    0.5    0.4    78   -2.9   0.0   ---   0.00   0.0   ---    0.4    0.3    0.3  1016.0  0.00   0.0   0.124   0.000   13.8    30   -3.5   12.1   6.35 1.2282    41.7   216    2     97.3   10 
20/09/18  5:30a    0.3    0.4    0.3    79   -2.9   0.0   ---   0.00   0.0   ---    0.3    0.2    0.2  1016.3  0.00   0.0   0.125   0.000   13.8    30   -3.5   12.0   6.35 1.2289    41.7   214    2     96.4   10 
20/09/18  5:40a    0.2    0.3    0.2    79   -3.0   0.0   ---   0.00   0.0   ---    0.2    0.0    0.0  1016.3  0.00   0.0   0.126   0.000   13.8    30   -3.5   12.0   6.35 1.2289    41.7   215    2     96.8   10 
20/09/18  5:50a   -0.1    0.2   -0.1    79   -3.3   0.0   ---   0.00   0.0   ---   -0.1   -0.2   -0.2  1016.6  0.00   0.0   0.128   0.000   13.7    30   -3.6   11.9   6.35 1.2297    41.7   209    2     94.1   10 
20/09/18  6:00a   -0.2   -0.1   -0.2    80   -3.2   0.0   ---   0.00   0.0   ---   -0.2   -0.3   -0.3  1016.8  0.00   0.0   0.128   0.000   13.6    30   -3.7   11.8   6.35 1.2302    41.7    82    2     36.9   10 
20/09/18  6:10a   -0.3   -0.2   -0.3    81   -3.2   0.0   ---   0.00   0.0   ---   -0.3   -0.5   -0.5  1016.8  0.00   0.0   0.130   0.000   13.6    30   -3.7   11.8   6.35 1.2305    41.7   106    2     47.7   10 
20/09/18  6:20a   -0.1   -0.1   -0.3    81   -2.9   0.0   ---   0.00   0.0   ---   -0.1   -0.2   -0.2  1017.1  0.00   0.0   0.128   0.000   13.4    30   -3.8   11.7   6.35 1.2314    41.7    53    2     23.9   10 
20/09/18  6:30a    0.1    0.1   -0.1    82   -2.6   0.0   ---   0.00   0.0   ---    0.1   -0.1   -0.1  1017.4  0.00   0.0   0.127   0.000   13.4    30   -3.9   11.7   6.35 1.2320    41.7    90    2     40.5   10 
20/09/18  6:40a    0.1    0.1    0.1    82   -2.6   0.0   ---   0.00   0.0   ---    0.1   -0.1   -0.1  1017.4  0.00   0.0   0.127   0.000   13.3    30   -4.0   11.6   6.35 1.2325    41.7   197    2     88.7   10 
20/09/18  6:50a    0.3    0.3    0.1    82   -2.4   0.0   ---   0.00   0.0   ---    0.3    0.1    0.1  1017.5  0.00   0.0   0.125   0.000   13.3    31   -3.5   11.6   6.47 1.2324    41.7   216    2     97.3   10 
20/09/18  7:00a    0.7    0.7    0.3    82   -2.1   0.0   ---   0.00   0.0   ---    0.7    0.5    0.5  1017.5  0.00   0.0   0.123   0.000   13.4    31   -3.4   11.7   6.47 1.2317    41.7   217    2     97.7   10 
20/09/18  7:10a    1.1    1.1    0.7    82   -1.7   0.0   ---   0.00   0.0   ---    1.1    0.8    0.8  1017.5  0.00   0.0   0.120   0.000   13.6    32   -2.8   11.9   6.58 1.2310    41.7   216    2     97.3   10 
20/09/18  7:20a    1.8    1.8    1.1    81   -1.1   0.0   ---   0.00   0.0   ---    1.8    1.7    1.7  1017.5  0.00   0.0   0.115   0.000   13.7    33   -2.3   12.0   6.78 1.2303    41.7   212    2     95.5   10 
20/09/18  7:30a    2.8    2.8    1.8    77   -0.9   0.0   ---   0.00   0.0   ---    2.8    2.6    2.6  1017.6  0.00   0.0   0.108   0.000   14.0    33   -2.0   12.3   6.79 1.2288    41.7   217    2     97.7   10 
20/09/18  7:40a    3.7    3.7    2.8    74   -0.5   0.0   ---   0.00   0.0   ---    3.7    3.4    3.4  1017.6  0.00   0.0   0.102   0.000   14.3    33   -1.8   12.6   6.80 1.2275    41.7   214    2     96.4   10 
20/09/18  7:50a    4.3    4.3    3.7    70   -0.7   0.0   ---   0.00   0.0   ---    4.3    3.9    3.9  1017.7  0.00   0.0   0.098   0.000   14.6    33   -1.6   12.8   6.81 1.2264    41.7   213    2     95.9   10 
20/09/18  8:00a    5.0    5.0    4.3    68   -0.4   0.0   ---   0.00   0.0   ---    5.0    4.7    4.7  1017.7  0.00   0.0   0.093   0.000   14.6    32   -2.0   12.8   6.61 1.2265    41.7   213    2     95.9   10 
20/09/18  8:10a    5.6    5.6    5.0    68    0.1   0.0   ---   0.00   0.0   ---    5.6    5.2    5.2  1017.7  0.00   0.0   0.089   0.000   14.6    32   -1.9   12.8   6.62 1.2262    41.7   178    2     80.2   10 
20/09/18  8:20a    6.1    6.1    5.6    64   -0.2   0.0   ---   0.00   0.0   ---    6.1    5.7    5.7  1017.8  0.00   0.0   0.085   0.000   14.8    32   -1.8   13.0   6.62 1.2256    41.7    41    2     18.5   10 
20/09/18  8:30a    6.6    6.6    6.1    64    0.3   0.0   ---   0.00   0.0   ---    6.6    6.2    6.2  1017.8  0.00   0.0   0.081   0.000   15.1    32   -1.5   13.2   6.63 1.2243    41.7    44    2     19.8   10 
20/09/18  8:40a    7.1    7.1    6.6    63    0.5   0.0   ---   0.00   0.0   ---    7.1    6.7    6.7  1017.8  0.00   0.0   0.078   0.000   15.2    31   -1.8   13.3   6.54 1.2237    41.7     0    2      0.0   10 
20/09/18  8:50a    8.3    8.3    7.1    60    1.0   0.0   ---   0.00   0.0   ---    8.3    7.8    7.8  1017.7  0.00   0.0   0.070   0.000   15.3    31   -1.8   13.4   6.54 1.2234    41.7     0    2      0.0   10 
20/09/18  9:00a    9.4    9.4    8.3    54    0.6   0.0   ---   0.00   0.0   ---    9.4    8.9    8.9  1017.5  0.00   0.0   0.062   0.000   15.4    30   -2.1   13.5   6.35 1.2226    41.7     0    2      0.0   10 
20/09/18  9:10a    9.8    9.8    9.4    55    1.2   0.0   ---   0.00   0.0   ---    9.8    9.3    9.3  1017.5  0.00   0.0   0.059   0.000   15.6    30   -2.0   13.6   6.35 1.2221    41.7     0    2      0.0   10 
20/09/18  9:20a   10.6   10.6    9.8    50    0.6   0.0   ---   0.00   0.0   ---   10.6    9.9    9.9  1017.8  0.00   0.0   0.054   0.000   15.6    30   -1.9   13.7   6.35 1.2221    41.7     0    2      0.0   10 
20/09/18  9:30a   11.3   11.3   10.6    49    1.0   0.0   ---   0.00   0.0   ---   11.3   10.4   10.4  1017.7  0.00   0.0   0.049   0.000   15.8    30   -1.8   13.8   6.34 1.2212    41.7     0    2      0.0   10 
20/09/18  9:40a   11.8   11.8   11.3    48    1.1   0.0   ---   0.00   0.0   ---   11.8   10.8   10.8  1017.7  0.00   0.0   0.046   0.000   15.9    30   -1.7   13.9   6.34 1.2207    41.7     0    2      0.0   10 
20/09/18  9:50a   12.3   12.3   11.8    46    1.0   0.0   ---   0.00   0.0   ---   12.3   11.2   11.2  1017.6  0.00   0.0   0.042   0.000   16.0    30   -1.6   14.0   6.33 1.2201    41.7   150    2     67.6   10 
20/09/18 10:00a   12.4   12.7   12.3    42   -0.2   0.0   ---   0.00   0.0   ---   12.4   11.2   11.2  1017.6  0.00   0.0   0.041   0.000   16.2    30   -1.4   14.2   6.33 1.2193    41.7   217    2     97.7   10 
20/09/18 10:10a   12.4   12.6   12.4    42   -0.2   0.0     E   0.00   1.6     E   12.4   11.2   11.2  1017.6  0.00   0.0   0.041   0.000   16.3    29   -1.8   14.3   6.15 1.2188    41.7   215    2     96.8   10 
20/09/18 10:20a   12.7   12.7   12.4    45    1.0   0.0   ---   0.00   0.0   ---   12.7   11.5   11.5  1017.4  0.00   0.0   0.039   0.000   16.5    29   -1.6   14.4   6.15 1.2178    41.7   201    2     90.5   10 
20/09/18 10:30a   13.2   13.2   12.7    38   -0.9   0.0   ---   0.00   0.0   ---   13.2   11.7   11.7  1017.3  0.00   0.0   0.036   0.000   16.7    29   -1.5   14.6   6.15 1.2169    41.7   211    2     95.0   10 
20/09/18 10:40a   13.2   13.2   13.0    40   -0.2   0.0   ENE   0.00   1.6   ENE   13.2   11.8   11.8  1017.3  0.00   0.0   0.036   0.000   16.9    29   -1.2   14.8   6.15 1.2156    41.7   218    2     98.2   10 
20/09/18 10:50a   13.0   13.2   13.0    42    0.4   0.0   ENE   0.00   4.8   ENE   13.0   11.7   11.7  1017.3  0.00   0.0   0.037   0.000   17.0    29   -1.2   14.9   6.15 1.2153    41.7   215    2     96.8   10 
20/09/18 11:00a   13.5   13.5   13.0    40    0.1   0.0   ENE   0.00   1.6   ENE   13.5   12.1   12.1  1017.2  0.00   0.0   0.034   0.000   17.2    28   -1.5   15.0   5.99 1.2144    41.7   216    2     97.3   10 
20/09/18 11:10a   13.7   13.7   13.5    42    1.0   0.0   ENE   0.00   4.8   ENE   13.7   12.4   12.4  1017.2  0.00   0.0   0.032   0.000   17.4    28   -1.3   15.2   5.98 1.2134    41.7   217    2     97.7   10 
20/09/18 11:20a   13.9   13.9   13.7    38   -0.2   0.0   ENE   0.00   4.8   ENE   13.9   12.4   12.4  1017.3  0.00   0.0   0.031   0.000   17.6    28   -1.1   15.4   5.98 1.2127    41.7   220    2     99.1   10 
20/09/18 11:30a   14.2   14.2   13.9    41    1.1   0.0   ENE   0.00   8.0   ENE   14.2   12.8   12.8  1017.0  0.00   0.0   0.029   0.000   17.8    28   -0.9   15.6   5.97 1.2114    41.7   217    2     97.7   10 
20/09/18 11:40a   14.5   14.5   14.1    40    1.0   0.0   ENE   0.00   8.0   ENE   14.5   13.1   13.1  1017.0  0.00   0.0   0.027   0.000   18.0    27   -1.3   15.7   5.85 1.2109    41.7   207    2     93.2   10 
20/09/18 11:50a   14.7   14.8   14.5    41    1.6   0.0   ESE   0.00  11.3   ESE   14.7   13.3   13.3  1016.9  0.00   0.0   0.025   0.000   18.3    27   -1.1   15.9   5.85 1.2094    41.7   195    2     87.8   10 
20/09/18 12:00p   14.7   15.0   14.7    37    0.2   0.0     E   0.00   8.0     E   14.7   13.1   13.1  1016.7  0.00   0.0   0.025   0.000   18.3    27   -1.0   16.0   5.85 1.2090    41.7   215    2     96.8   10 
20/09/18 12:10p   14.7   14.7   14.6    38    0.5   1.6   ESE   0.27   8.0   ESE   14.7   13.1   13.1  1016.7  0.00   0.0   0.025   0.000   18.6    26   -1.3   16.1   5.65 1.2082    41.7   216    2     97.3   10 
20/09/18 12:20p   15.3   15.3   14.7    41    2.1   0.0     E   0.00   8.0     E   15.3   13.9   13.9  1016.5  0.00   0.0   0.021   0.000   18.7    26   -1.2   16.2   5.65 1.2072    41.7   215    2     96.8   10 
20/09/18 12:30p   16.2   16.2   15.3    37    1.4   0.0     E   0.00   8.0     E   16.2   14.5   14.5  1016.2  0.00   0.0   0.015   0.000   18.8    26   -1.1   16.3   5.65 1.2063    41.7   215    2     96.8   10 
20/09/18 12:40p   16.7   16.7   16.2    33    0.3   0.0    NE   0.00   8.0    NE   16.7   14.8   14.8  1016.2  0.00   0.0   0.011   0.000   19.1    26   -0.9   16.6   5.65 1.2053    41.7   153    2     68.9   10 
20/09/18 12:50p   16.3   16.7   16.3    31   -0.9   1.6   ESE   0.27   9.7   ESE   16.3   14.4   14.4  1016.0  0.00   0.0   0.014   0.000   19.2    26   -0.8   16.7   5.65 1.2045    41.7   214    2     96.4   10 
20/09/18  1:00p   16.5   16.5   16.3    35    1.0   1.6   ESE   0.27   8.0   ESE   16.5   14.7   14.7  1015.7  0.00   0.0   0.013   0.000   19.4    26   -0.6   16.9   5.65 1.2030    41.7   186    2     83.8   10 
20/09/18  1:10p   16.2   16.5   16.1    36    1.1   1.6   ESE   0.27   8.0   ESE   16.2   14.4   14.4  1015.7  0.00   0.0   0.015   0.000   19.6    26   -0.4   17.2   5.65 1.2022    41.7   190    2     85.6   10 
20/09/18  1:20p   16.3   16.3   16.2    28   -2.2   1.6   NNW   0.27  12.9     N   16.3   14.2   14.2  1016.0  0.00   0.0   0.014   0.000   19.7    26   -0.3   17.3   5.65 1.2020    41.7   181    2     81.5   10 
20/09/18  1:30p   17.1   17.1   16.3    32    0.2   0.0   SSE   0.00   1.6     S   17.1   15.1   15.1  1015.6  0.00   0.0   0.009   0.000   19.7    25   -0.9   17.2   5.50 1.2019    41.7   217    2     97.7   10 
20/09/18  1:40p   16.9   17.2   16.9    28   -1.7   0.0   SSE   0.00   1.6     S   16.9   14.7   14.7  1015.6  0.00   0.0   0.010   0.000   19.7    25   -0.9   17.2   5.50 1.2019    41.7    81    2     36.5   10 
20/09/18  1:50p   16.7   16.9   16.4    29   -1.4   0.0   ---   0.00   0.0   ---   16.7   14.6   14.6  1015.6  0.00   0.0   0.011   0.000   19.7    25   -0.9   17.2   5.50 1.2019    41.7     0    2      0.0   10 
20/09/18  2:00p   17.1   17.1   16.7    31   -0.2   0.0   ---   0.00   0.0   ---   17.1   15.1   15.1  1015.5  0.00   0.0   0.009   0.000   19.6    26   -0.4   17.2   5.65 1.2020    41.7     0    2      0.0   10 
20/09/18  2:10p   17.4   17.4   16.9    30   -0.4   0.0   ---   0.00   0.0   ---   17.4   15.3   15.3  1015.5  0.00   0.0   0.007   0.000   19.6    26   -0.4   17.2   5.65 1.2020    41.7     0    2      0.0   10 
20/09/18  2:20p   17.9   17.9   17.4    30    0.1   0.0   ---   0.00   0.0   ---   17.9   15.9   15.9  1015.6  0.00   0.0   0.003   0.000   19.7    26   -0.3   17.3   5.65 1.2016    41.7     0    2      0.0   10 
20/09/18  2:30p   17.8   17.9   17.8    30    0.0   0.0   ---   0.00   0.0   ---   17.8   15.8   15.8  1015.6  0.00   0.0   0.003   0.000   19.7    26   -0.3   17.3   5.65 1.2016    41.7     0    2      0.0   10 
20/09/18  2:40p   17.8   17.8   17.8    32    0.8   0.0   ---   0.00   0.0   ---   17.8   15.8   15.8  1015.6  0.00   0.0   0.004   0.000   19.7    26   -0.3   17.3   5.65 1.2016    41.7     0    2      0.0   10 
20/09/18  2:50p   17.4   17.8   17.4    31    0.1   0.0   NNE   0.00  11.3   ENE   17.4   15.4   15.4  1015.7  0.00   0.0   0.007   0.000   19.7    26   -0.3   17.3   5.65 1.2017    41.7   171    2     77.0   10 
20/09/18  3:00p   17.1   17.4   17.1    32    0.2   0.0    NE   0.00   9.7   ENE   17.1   15.1   15.1  1016.0  0.00   0.0   0.009   0.000   19.7    27    0.2   17.4   5.85 1.2018    41.7   219    2     98.6   10 
20/09/18  3:10p   16.3   17.1   16.3    33    0.0   0.0    NE   0.00   4.8    NE   16.3   14.4   14.4  1016.0  0.00   0.0   0.014   0.000   19.8    27    0.2   17.5   5.85 1.2015    41.7   213    2     95.9   10 
20/09/18  3:20p   15.4   16.3   15.4    34   -0.4   0.0    NE   0.00   6.4    NE   15.4   13.6   13.6  1016.4  0.00   0.0   0.020   0.000   19.9    27    0.3   17.7   5.85 1.2014    41.7   210    2     94.6   10 
20/09/18  3:30p   14.8   15.4   14.8    35   -0.5   0.0   ENE   0.00   4.8   ENE   14.8   13.1   13.1  1016.7  0.00   0.0   0.024   0.000   21.5    25    0.6   19.4   5.51 1.1951    41.7   216    2     97.3   10 
20/09/18  3:40p   14.7   14.8   14.7    36   -0.3   0.0    NE   0.00  11.3    NE   14.7   13.0   13.0  1016.7  0.00   0.0   0.025   0.000   20.9    25    0.2   18.7   5.54 1.1976    41.7   212    2     95.5   10 
20/09/18  3:50p   14.4   14.7   14.4    37   -0.1   0.0    NE   0.00   4.8    NE   14.4   12.8   12.8  1016.7  0.00   0.0   0.027   0.000   20.6    26    0.4   18.3   5.65 1.1991    41.7   215    2     96.8   10 
20/09/18  4:00p   14.2   14.4   14.2    37   -0.3   0.0   NNE   0.00   8.0     N   14.2   12.7   12.7  1016.8  0.00   0.0   0.029   0.000   20.6    27    0.9   18.3   5.85 1.1990    41.7   210    2     94.6   10 
20/09/18  4:10p   13.9   14.2   13.9    38   -0.2   0.0   NNW   0.00   3.2   NNW   13.9   12.4   12.4  1016.8  0.00   0.0   0.030   0.000   20.6    27    0.9   18.4   5.85 1.1987    41.7   193    2     86.9   10 
20/09/18  4:20p   13.7   13.9   13.7    39   -0.0   0.0    NW   0.00   1.6    NW   13.7   12.3   12.3  1017.3  0.00   0.0   0.032   0.000   20.6    27    0.9   18.4   5.85 1.1992    41.7   129    2     58.1   10 
20/09/18  4:30p   13.6   13.7   13.6    39   -0.2   0.0   NNW   0.00   4.8   NNW   13.6   12.1   12.1  1017.5  0.00   0.0   0.033   0.000   20.6    27    0.9   18.4   5.85 1.1995    41.7    98    2     44.1   10 
20/09/18  4:40p   13.3   13.6   13.3    40   -0.0   0.0   WSW   0.00   4.8   WSW   13.3   11.9   11.9  1017.5  0.00   0.0   0.035   0.000   20.6    27    0.9   18.4   5.85 1.1995    41.7   144    2     64.9   10 
20/09/18  4:50p   13.2   13.3   13.2    41    0.2   0.0     W   0.00   3.2     W   13.2   11.8   11.8  1017.9  0.00   0.0   0.036   0.000   20.7    27    1.0   18.6   5.85 1.1994    41.7   122    2     55.0   10 
20/09/18  5:00p   12.9   13.2   12.9    42    0.3   0.0     W   0.00   1.6     W   12.9   11.6   11.6  1018.1  0.00   0.0   0.038   0.000   20.6    26    0.4   18.3   5.65 1.2005    41.7   104    2     46.8   10 
20/09/18  5:10p   12.7   12.9   12.7    42    0.1   0.0     W   0.00   3.2     W   12.7   11.4   11.4  1018.1  0.00   0.0   0.039   0.000   20.6    27    0.9   18.4   5.85 1.2002    41.7    76    2     34.2   10 
20/09/18  5:20p   12.3   12.6   12.3    43    0.1   0.0     W   0.00   1.6     W   12.3   11.2   11.2  1018.5  0.00   0.0   0.042   0.000   20.6    27    0.9   18.3   5.85 1.2009    41.7   178    2     80.2   10 
20/09/18  5:30p   12.1   12.3   12.1    44    0.2   0.0   ---   0.00   0.0   ---   12.1   10.9   10.9  1018.6  0.00   0.0   0.044   0.000   20.4    26    0.3   18.2   5.65 1.2018    41.7   212    2     95.5   10 
20/09/18  5:40p   11.8   12.1   11.8    45    0.2   0.0   ---   0.00   0.0   ---   11.8   10.8   10.8  1018.6  0.00   0.0   0.046   0.000   20.3    26    0.2   18.1   5.65 1.2023    41.7   212    2     95.5   10 
20/09/18  5:50p   11.4   11.8   11.4    46    0.2   0.0   ---   0.00   0.0   ---   11.4   10.5   10.5  1018.9  0.00   0.0   0.048   0.000   20.3    26    0.2   18.1   5.65 1.2028    41.7   206    2     92.8   10 
20/09/18  6:00p   11.0   11.3   11.0    47    0.1   0.0   ---   0.00   0.0   ---   11.0   10.1   10.1  1019.1  0.00   0.0   0.051   0.000   20.3    26    0.1   18.0   5.65 1.2032    41.7   168    2     75.7   10 
20/09/18  6:10p   10.6   11.0   10.6    48    0.0   0.0   ---   0.00   0.0   ---   10.6    9.8    9.8  1019.1  0.00   0.0   0.054   0.000   20.1    26   -0.1   17.8   5.65 1.2042    41.7   213    2     95.9   10 
20/09/18  6:20p   10.3   10.6   10.3    49    0.0   0.0   ---   0.00   0.0   ---   10.3    9.6    9.6  1019.4  0.00   0.0   0.056   0.000   20.0    27    0.4   17.8   5.85 1.2046    41.7   217    2     97.7   10 
20/09/18  6:30p    9.8   10.3    9.8    50   -0.1   0.0   ---   0.00   0.0   ---    9.8    9.2    9.2  1019.8  0.00   0.0   0.059   0.000   19.9    27    0.3   17.7   5.85 1.2056    41.7   215    2     96.8   10 
20/09/18  6:40p    9.4    9.8    9.4    51   -0.2   0.0   ---   0.00   0.0   ---    9.4    8.8    8.8  1019.8  0.00   0.0   0.062   0.000   19.8    27    0.2   17.5   5.85 1.2061    41.7   214    2     96.4   10 
20/09/18  6:50p    9.1    9.4    9.1    51   -0.5   0.0   ---   0.00   0.0   ---    9.1    8.4    8.4  1020.1  0.00   0.0   0.064   0.000   19.8    28    0.7   17.6   5.95 1.2061    41.7   217    2     97.7   10 
20/09/18  7:00p    8.9    9.1    8.9    52   -0.4   0.0   ---   0.00   0.0   ---    8.9    8.3    8.3  1020.5  0.00   0.0   0.066   0.000   19.7    28    0.7   17.6   5.95 1.2069    41.7   214    2     96.4   10 
20/09/18  7:10p    8.7    8.9    8.7    52   -0.6   0.0   ---   0.00   0.0   ---    8.7    8.1    8.1  1020.5  0.00   0.0   0.067   0.000   19.7    29    1.2   17.6   6.10 1.2066    41.7   212    2     95.5   10 
20/09/18  7:20p    8.4    8.7    8.4    53   -0.6   0.0   ---   0.00   0.0   ---    8.4    7.8    7.8  1020.3  0.00   0.0   0.069   0.000   19.6    29    1.1   17.5   6.10 1.2069    41.7   215    2     96.8   10 
20/09/18  7:30p    8.1    8.4    8.1    54   -0.7   0.0   ---   0.00   0.0   ---    8.1    7.6    7.6  1020.5  0.00   0.0   0.071   0.000   19.5    30    1.4   17.5   6.25 1.2074    41.7   212    2     95.5   10 
20/09/18  7:40p    8.1    8.1    8.1    53   -1.0   0.0   ---   0.00   0.0   ---    8.1    7.4    7.4  1020.5  0.00   0.0   0.071   0.000   19.5    30    1.4   17.5   6.25 1.2074    41.7   193    2     86.9   10 
20/09/18  7:50p    7.9    8.1    7.9    54   -0.9   0.0   ---   0.00   0.0   ---    7.9    7.3    7.3  1020.9  0.00   0.0   0.073   0.000   19.4    30    1.4   17.4   6.25 1.2081    41.7   202    2     91.0   10 
20/09/18  8:00p    8.1    8.1    7.9    53   -1.0   0.0   ---   0.00   0.0   ---    8.1    7.4    7.4  1021.1  0.00   0.0   0.071   0.000   19.5    30    1.4   17.5   6.25 1.2080    41.7   210    2     94.6   10 
20/09/18  8:10p    8.4    8.4    8.1    52   -0.9   0.0   ---   0.00   0.0   ---    8.4    7.8    7.8  1021.1  0.00   0.0   0.069   0.000   19.5    30    1.4   17.5   6.25 1.2080    41.7   213    2     95.9   10 
20/09/18  8:20p    8.6    8.6    8.4    52   -0.8   0.0   ---   0.00   0.0   ---    8.6    7.9    7.9  1020.7  0.00   0.0   0.068   0.000   19.5    30    1.4   17.5   6.25 1.2075    41.7   211    2     95.0   10 
20/09/18  8:30p    8.6    8.6    8.6    51   -1.0   0.0   ---   0.00   0.0   ---    8.6    7.9    7.9  1020.9  0.00   0.0   0.068   0.000   19.6    30    1.5   17.6   6.25 1.2073    41.7   219    2     98.6   10 
20/09/18  8:40p    8.6    8.6    8.6    52   -0.8   0.0   ---   0.00   0.0   ---    8.6    7.9    7.9  1020.9  0.00   0.0   0.068   0.000   19.6    29    1.1   17.5   6.10 1.2075    41.7   201    2     90.5   10 
20/09/18  8:50p    8.4    8.6    8.4    52   -0.9   0.0   ---   0.00   0.0   ---    8.4    7.8    7.8  1021.0  0.00   0.0   0.069   0.000   19.5    29    1.0   17.4   6.11 1.2082    41.7   198    2     89.2   10 
20/09/18  9:00p    8.4    8.4    8.4    52   -0.9   0.0   ---   0.00   0.0   ---    8.4    7.8    7.8  1021.1  0.00   0.0   0.069   0.000   19.3    29    0.8   17.2   6.11 1.2091    41.7   214    2     96.4   10 
20/09/18  9:10p    8.1    8.4    8.1    53   -0.9   0.0   ---   0.00   0.0   ---    8.1    7.5    7.5  1021.1  0.00   0.0   0.071   0.000   19.3    29    0.8   17.2   6.12 1.2094    41.7   216    2     97.3   10 
20/09/18  9:20p    8.2    8.2    8.1    52   -1.1   0.0   ---   0.00   0.0   ---    8.2    7.6    7.6  1021.0  0.00   0.0   0.070   0.000   19.1    29    0.6   16.9   6.12 1.2102    41.7   216    2     97.3   10 
20/09/18  9:30p    8.2    8.3    8.2    53   -0.8   0.0   ---   0.00   0.0   ---    8.2    7.6    7.6  1021.0  0.00   0.0   0.070   0.000   19.0    29    0.5   16.9   6.13 1.2105    41.7   214    2     96.4   10 
20/09/18  9:40p    8.1    8.2    8.1    53   -0.9   0.0   ---   0.00   0.0   ---    8.1    7.5    7.5  1021.0  0.00   0.0   0.071   0.000   18.9    29    0.4   16.8   6.13 1.2110    41.7   214    2     96.4   10 
20/09/18  9:50p    7.9    8.1    7.9    53   -1.1   0.0   ---   0.00   0.0   ---    7.9    7.3    7.3  1020.9  0.00   0.0   0.072   0.000   18.8    29    0.4   16.7   6.13 1.2111    41.7   218    2     98.2   10 
20/09/18 10:00p    7.7    7.9    7.7    54   -1.1   0.0   ---   0.00   0.0   ---    7.7    7.1    7.1  1021.1  0.00   0.0   0.074   0.000   18.7    29    0.3   16.6   6.14 1.2119    41.7   216    2     97.3   10 
20/09/18 10:10p    6.5    7.7    6.5    57   -1.4   0.0   ---   0.00   0.0   ---    6.5    6.0    6.0  1021.1  0.00   0.0   0.082   0.000   18.6    29    0.2   16.4   6.14 1.2126    41.7   215    2     96.8   10 
20/09/18 10:20p    6.1    6.5    6.1    60   -1.1   0.0   ---   0.00   0.0   ---    6.1    5.6    5.6  1021.7  0.00   0.0   0.085   0.000   18.6    29    0.2   16.4   6.14 1.2134    41.7   210    2     94.6   10 
20/09/18 10:30p    5.7    6.1    5.7    61   -1.2   0.0   ---   0.00   0.0   ---    5.7    5.3    5.3  1021.8  0.00   0.0   0.088   0.000   18.3    29   -0.0   16.2   6.15 1.2146    41.7   217    2     97.7   10 
20/09/18 10:40p    5.6    5.7    5.6    62   -1.2   0.0   ---   0.00   0.0   ---    5.6    5.1    5.1  1021.8  0.00   0.0   0.089   0.000   18.2    29   -0.2   16.0   6.15 1.2154    41.7   218    2     98.2   10 
20/09/18 10:50p    5.7    5.7    5.6    61   -1.3   0.0   ---   0.00   0.0   ---    5.7    5.2    5.2  1021.8  0.00   0.0   0.088   0.000   18.0    29   -0.3   15.8   6.15 1.2161    41.7   215    2     96.8   10 
20/09/18 11:00p    5.8    5.8    5.7    61   -1.2   0.0   ---   0.00   0.0   ---    5.8    5.3    5.3  1021.8  0.00   0.0   0.087   0.000   17.8    29   -0.5   15.7   6.15 1.2169    41.7   210    2     94.6   10 
20/09/18 11:10p    5.8    5.8    5.8    61   -1.2   0.0   ---   0.00   0.0   ---    5.8    5.3    5.3  1021.8  0.00   0.0   0.087   0.000   17.6    29   -0.7   15.4   6.15 1.2179    41.7   215    2     96.8   10 
20/09/18 11:20p    5.2    5.8    5.2    64   -1.0   0.0   ---   0.00   0.0   ---    5.2    4.8    4.8  1021.9  0.00   0.0   0.091   0.000   17.4    29   -0.8   15.3   6.15 1.2188    41.7   214    2     96.4   10 
20/09/18 11:30p    4.8    5.2    4.8    64   -1.5   0.0   ---   0.00   0.0   ---    4.8    4.4    4.4  1022.0  0.00   0.0   0.094   0.000   17.3    29   -0.9   15.1   6.15 1.2196    41.7   219    2     98.6   10 
20/09/18 11:40p    4.2    4.8    4.2    66   -1.6   0.0   ---   0.00   0.0   ---    4.2    3.8    3.8  1022.0  0.00   0.0   0.098   0.000   17.1    29   -1.1   15.0   6.15 1.2204    41.7   215    2     96.8   10 
20/09/18 11:50p    3.7    4.2    3.7    66   -2.1   0.0   ---   0.00   0.0   ---    3.7    3.3    3.3  1022.0  0.00   0.0   0.102   0.000   16.9    29   -1.2   14.8   6.15 1.2213    41.7   218    2     98.2   10 
21/09/18 12:00a    2.8    3.7    2.8    71   -1.9   0.0   ---   0.00   0.0   ---    2.8    2.5    2.5  1022.3  0.00   0.0   0.108   0.000   16.8    30   -0.9   14.8   6.31 1.2221    41.7   214    2     96.4   10 
21/09/18 12:10a    2.8    2.8    2.8    72   -1.8   0.0   ---   0.00   0.0   ---    2.8    2.5    2.5  1022.3  0.00   0.0   0.108   0.000   16.6    29   -1.5   14.5   6.15 1.2231    41.7   220    2     99.1   10 
21/09/18 12:20a    2.9    2.9    2.8    72   -1.6   0.0   ---   0.00   0.0   ---    2.9    2.7    2.7  1022.4  0.00   0.0   0.107   0.000   16.4    30   -1.3   14.4   6.32 1.2240    41.7   215    2     96.8   10 
21/09/18 12:30a    3.1    3.1    2.9    72   -1.5   0.0   ---   0.00   0.0   ---    3.1    2.8    2.8  1022.7  0.00   0.0   0.106   0.000   16.3    30   -1.3   14.3   6.32 1.2247    41.7   216    2     97.3   10 
21/09/18 12:40a    3.1    3.1    3.1    71   -1.6   0.0   ---   0.00   0.0   ---    3.1    2.8    2.8  1022.7  0.00   0.0   0.106   0.000   16.2    30   -1.4   14.2   6.33 1.2254    41.7   180    2     81.1   10 
21/09/18 12:50a    2.9    3.1    2.9    72   -1.6   0.0   ---   0.00   0.0   ---    2.9    2.7    2.7  1022.7  0.00   0.0   0.107   0.000   16.1    30   -1.5   14.1   6.33 1.2260    41.7   215    2     96.8   10 
21/09/18  1:00a    2.8    2.9    2.8    72   -1.7   0.0   ---   0.00   0.0   ---    2.8    2.6    2.6  1022.6  0.00   0.0   0.108   0.000   15.9    30   -1.7   13.9   6.34 1.2266    41.7   216    2     97.3   10 
21/09/18  1:10a    2.8    2.8    2.8    72   -1.7   0.0   ---   0.00   0.0   ---    2.8    2.6    2.6  1022.6  0.00   0.0   0.108   0.000   15.9    30   -1.7   13.9   6.34 1.2266    41.7   217    2     97.7   10 
21/09/18  1:20a    2.8    2.8    2.8    72   -1.7   0.0   ---   0.00   0.0   ---    2.8    2.6    2.6  1022.7  0.00   0.0   0.108   0.000   15.7    30   -1.8   13.8   6.34 1.2275    41.7   215    2     96.8   10 
21/09/18  1:30a    2.8    2.8    2.8    72   -1.8   0.0   ---   0.00   0.0   ---    2.8    2.5    2.5  1022.7  0.00   0.0   0.108   0.000   15.6    30   -1.9   13.7   6.35 1.2280    41.7   215    2     96.8   10 
21/09/18  1:40a    2.6    2.8    2.6    73   -1.7   0.0   ---   0.00   0.0   ---    2.6    2.3    2.3  1022.7  0.00   0.0   0.109   0.000   15.6    30   -1.9   13.7   6.35 1.2280    41.7   218    2     98.2   10 
21/09/18  1:50a    2.4    2.6    2.4    74   -1.7   0.0   ---   0.00   0.0   ---    2.4    2.2    2.2  1022.5  0.00   0.0   0.110   0.000   15.4    30   -2.1   13.5   6.35 1.2286    41.7   217    2     97.7   10 
21/09/18  2:00a    2.4    2.4    2.4    74   -1.8   0.0   ---   0.00   0.0   ---    2.4    2.2    2.2  1022.5  0.00   0.0   0.111   0.000   15.4    30   -2.1   13.4   6.35 1.2289    41.7   215    2     96.8   10 
21/09/18  2:10a    2.2    2.4    2.2    74   -1.9   0.0   ---   0.00   0.0   ---    2.2    2.0    2.0  1022.5  0.00   0.0   0.112   0.000   15.3    30   -2.2   13.3   6.35 1.2294    41.7   216    2     97.3   10 
21/09/18  2:20a    2.2    2.2    2.2    75   -1.8   0.0   ---   0.00   0.0   ---    2.2    1.9    1.9  1022.3  0.00   0.0   0.112   0.000   15.2    30   -2.3   13.3   6.35 1.2293    41.7   219    2     98.6   10 
21/09/18  2:30a    2.2    2.2    2.2    75   -1.8   0.0   ---   0.00   0.0   ---    2.2    1.9    1.9  1022.2  0.00   0.0   0.112   0.000   15.1    30   -2.4   13.2   6.35 1.2297    41.7   219    2     98.6   10 
21/09/18  2:40a    2.1    2.2    2.1    75   -1.9   0.0   ---   0.00   0.0   ---    2.1    1.8    1.8  1022.2  0.00   0.0   0.113   0.000   15.1    30   -2.4   13.2   6.35 1.2300    41.7   217    2     97.7   10 
21/09/18  2:50a    1.9    2.1    1.9    75   -2.1   0.0   ---   0.00   0.0   ---    1.9    1.7    1.7  1022.0  0.00   0.0   0.114   0.000   14.9    31   -2.1   13.1   6.53 1.2302    41.7   217    2     97.7   10 
21/09/18  3:00a    1.7    1.9    1.7    75   -2.2   0.0   ---   0.00   0.0   ---    1.7    1.5    1.5  1022.2  0.00   0.0   0.115   0.000   14.8    31   -2.2   12.9   6.52 1.2311    41.7   218    2     98.2   10 
21/09/18  3:10a    1.6    1.7    1.6    76   -2.2   0.0   ---   0.00   0.0   ---    1.6    1.3    1.3  1022.2  0.00   0.0   0.117   0.000   14.7    31   -2.3   12.9   6.52 1.2314    41.7   213    2     95.9   10 
21/09/18  3:20a    1.4    1.6    1.4    76   -2.4   0.0   ---   0.00   0.0   ---    1.4    1.2    1.2  1022.7  0.00   0.0   0.118   0.000   14.6    30   -2.8   12.8   6.35 1.2327    41.7   214    2     96.4   10 
21/09/18  3:30a    1.2    1.4    1.2    77   -2.4   0.0   ---   0.00   0.0   ---    1.2    1.0    1.0  1022.7  0.00   0.0   0.119   0.000   14.6    30   -2.8   12.8   6.35 1.2327    41.7   217    2     97.7   10 
21/09/18  3:40a    1.1    1.2    1.1    78   -2.4   0.0   ---   0.00   0.0   ---    1.1    0.8    0.8  1022.7  0.00   0.0   0.120   0.000   14.6    31   -2.4   12.7   6.51 1.2328    41.7   216    2     97.3   10 
21/09/18  3:50a    1.1    1.1    1.1    78   -2.4   0.0   ---   0.00   0.0   ---    1.1    0.8    0.8  1022.8  0.00   0.0   0.120   0.000   14.4    31   -2.5   12.7   6.51 1.2334    41.7   215    2     96.8   10 
21/09/18  4:00a    1.0    1.1    1.0    78   -2.4   0.0   ---   0.00   0.0   ---    1.0    0.8    0.8  1022.9  0.00   0.0   0.120   0.000   14.3    31   -2.6   12.6   6.51 1.2340    41.7   218    2     98.2   10 
21/09/18  4:10a    0.9    1.0    0.9    79   -2.3   0.0   ---   0.00   0.0   ---    0.9    0.7    0.7  1022.9  0.00   0.0   0.121   0.000   14.3    31   -2.6   12.5   6.50 1.2343    41.7   214    2     96.4   10 
21/09/18  4:20a    0.8    0.9    0.8    79   -2.4   0.0   ---   0.00   0.0   ---    0.8    0.6    0.6  1023.1  0.00   0.0   0.122   0.000   14.2    31   -2.7   12.4   6.50 1.2351    41.7   216    2     97.3   10 
21/09/18  4:30a    0.7    0.8    0.7    80   -2.3   0.0   ---   0.00   0.0   ---    0.7    0.6    0.6  1023.2  0.00   0.0   0.122   0.000   14.1    31   -2.8   12.3   6.50 1.2355    41.7   216    2     97.3   10 
21/09/18  4:40a    0.9    0.9    0.7    80   -2.2   0.0   ---   0.00   0.0   ---    0.9    0.7    0.7  1023.2  0.00   0.0   0.121   0.000   13.9    31   -2.9   12.2   6.49 1.2363    41.7   219    2     98.6   10 
21/09/18  4:50a    0.8    0.9    0.8    80   -2.2   0.0   ---   0.00   0.0   ---    0.8    0.7    0.7  1023.5  0.00   0.0   0.122   0.000   13.8    31   -3.0   12.1   6.49 1.2371    41.7   215    2     96.8   10 
21/09/18  5:00a    0.9    0.9    0.8    80   -2.2   0.0   ---   0.00   0.0   ---    0.9    0.7    0.7  1023.5  0.00   0.0   0.121   0.000   13.8    31   -3.1   12.1   6.49 1.2373    41.7   215    2     96.8   10 
21/09/18  5:10a    0.7    0.9    0.7    80   -2.4   0.0   ---   0.00   0.0   ---    0.7    0.5    0.5  1023.5  0.00   0.0   0.123   0.000   13.7    31   -3.2   11.9   6.48 1.2379    41.7   214    2     96.4   10 
21/09/18  5:20a    0.4    0.7    0.4    80   -2.6   0.0   ---   0.00   0.0   ---    0.4    0.3    0.3  1024.0  0.00   0.0   0.124   0.000   13.6    31   -3.2   11.9   6.48 1.2387    41.7   211    2     95.0   10 
21/09/18  5:30a    0.3    0.4    0.3    81   -2.6   0.0   ---   0.00   0.0   ---    0.3    0.1    0.1  1024.0  0.00   0.0   0.125   0.000   13.6    31   -3.3   11.8   6.48 1.2391    41.7   214    2     96.4   10 
21/09/18  5:40a    0.2    0.3    0.2    81   -2.7   0.0   ---   0.00   0.0   ---    0.2    0.0    0.0  1024.0  0.00   0.0   0.126   0.000   13.4    31   -3.4   11.7   6.47 1.2396    41.7   215    2     96.8   10 
21/09/18  5:50a    0.1    0.2    0.1    81   -2.8   0.0   ---   0.00   0.0   ---    0.1   -0.1   -0.1  1024.3  0.00   0.0   0.127   0.000   13.4    31   -3.4   11.7   6.47 1.2401    41.7   218    2     98.2   10 
21/09/18  6:00a    0.0    0.1    0.0    82   -2.7   0.0   ---   0.00   0.0   ---    0.0   -0.2   -0.2  1024.5  0.00   0.0   0.127   0.000   13.3    31   -3.5   11.6   6.47 1.2409    41.7   215    2     96.8   10 
21/09/18  6:10a    0.1    0.1    0.0    83   -2.4   0.0   ---   0.00   0.0   ---    0.1    0.0    0.0  1024.5  0.00   0.0   0.127   0.000   13.2    31   -3.6   11.6   6.47 1.2412    41.7   218    2     98.2   10 
21/09/18  6:20a    0.1    0.1    0.1    83   -2.4   0.0   ---   0.00   0.0   ---    0.1    0.0    0.0  1025.0  0.00   0.0   0.127   0.000   13.1    31   -3.7   11.4   6.46 1.2424    41.7   216    2     97.3   10 
21/09/18  6:30a    0.0    0.1    0.0    83   -2.5   0.0   ---   0.00   0.0   ---    0.0   -0.1   -0.1  1025.4  0.00   0.0   0.127   0.000   13.1    31   -3.7   11.4   6.46 1.2429    41.7   216    2     97.3   10 
21/09/18  6:40a    0.1    0.1    0.0    84   -2.3   0.0   ---   0.00   0.0   ---    0.1    0.0    0.0  1025.4  0.00   0.0   0.127   0.000   13.1    31   -3.7   11.4   6.46 1.2431    41.7   216    2     97.3   10 
21/09/18  6:50a    0.3    0.3    0.1    84   -2.1   0.0   ---   0.00   0.0   ---    0.3    0.2    0.2  1025.7  0.00   0.0   0.125   0.000   13.1    31   -3.7   11.4   6.46 1.2434    41.7   217    2     97.7   10 
21/09/18  7:00a    0.7    0.7    0.3    84   -1.7   0.0   ---   0.00   0.0   ---    0.7    0.6    0.6  1025.9  0.00   0.0   0.123   0.000   13.1    32   -3.2   11.5   6.56 1.2433    41.7   216    2     97.3   10 
21/09/18  7:10a    1.0    1.0    0.7    83   -1.6   0.0   ---   0.00   0.0   ---    1.0    0.8    0.8  1025.9  0.00   0.0   0.120   0.000   13.3    32   -3.1   11.6   6.57 1.2425    41.7   210    2     94.6   10 
21/09/18  7:20a    1.4    1.4    1.0    83   -1.2   0.0   ---   0.00   0.0   ---    1.4    1.2    1.2  1026.0  0.00   0.0   0.118   0.000   13.4    33   -2.5   11.8   6.77 1.2416    41.7   217    2     97.7   10 
21/09/18  7:30a    2.3    2.3    1.4    81   -0.6   0.0   ---   0.00   0.0   ---    2.3    2.1    2.1  1026.2  0.00   0.0   0.111   0.000   13.6    34   -2.0   12.0   6.88 1.2409    41.7   216    2     97.3   10 
21/09/18  7:40a    3.1    3.1    2.3    78   -0.4   0.0   ---   0.00   0.0   ---    3.1    2.9    2.9  1026.2  0.00   0.0   0.106   0.000   13.8    34   -1.8   12.2   6.89 1.2399    41.7   214    2     96.4   10 
21/09/18  7:50a    4.1    4.1    3.1    75    0.1   0.0   ---   0.00   0.0   ---    4.1    3.9    3.9  1026.1  0.00   0.0   0.099   0.000   14.1    34   -1.5   12.4   6.90 1.2384    41.7   212    2     95.5   10 
21/09/18  8:00a    4.8    4.8    4.1    70   -0.2   0.0   ---   0.00   0.0   ---    4.8    4.4    4.4  1026.2  0.00   0.0   0.094   0.000   14.3    34   -1.3   12.7   6.91 1.2374    41.7   165    2     74.3   10